Time;durP1;ratioP1;P1;durP2;ratioP2;P2;SDS_P1;SDS_P2;PMS_P1;PMS_P2;Temp;Humidity;BMP_temperature;BMP_pressure;BME280_temperature;BME280_humidity;BME280_pressure;Samples;Min_cycle;Max_cycle;Signal;HPM_P1;HPM_P2
2021/03/30 00:01:47;;;;;;;4.30;1.77;;;19.00;38.70;;;;;;5054553;28;20075;-69
2021/03/30 00:04:13;;;;;;;3.90;1.55;;;19.00;38.70;;;;;;5053931;28;20041;-68
2021/03/30 00:06:39;;;;;;;4.03;1.65;;;19.00;38.60;;;;;;5054152;28;20032;-68
2021/03/30 00:09:06;;;;;;;4.15;1.90;;;19.00;38.70;;;;;;5054010;28;20036;-68
2021/03/30 00:11:31;;;;;;;3.47;1.63;;;19.00;38.70;;;;;;5053911;28;20028;-69
2021/03/30 00:13:57;;;;;;;3.38;1.50;;;19.00;38.70;;;;;;5053730;28;20108;-69
2021/03/30 00:16:22;;;;;;;3.75;1.50;;;19.00;38.70;;;;;;5055319;28;20045;-69
2021/03/30 00:18:48;;;;;;;3.58;1.73;;;19.00;38.70;;;;;;5061459;28;20459;-69
2021/03/30 00:21:13;;;;;;;5.60;2.20;;;19.00;38.70;;;;;;5060262;28;20052;-70
2021/03/30 00:23:39;;;;;;;3.90;1.70;;;19.00;38.70;;;;;;5053858;28;20048;-68
2021/03/30 00:26:05;;;;;;;4.85;1.98;;;19.00;38.70;;;;;;5053778;28;20139;-69
2021/03/30 00:28:30;;;;;;;4.10;1.70;;;19.00;38.70;;;;;;5054033;28;20029;-69
2021/03/30 00:30:56;;;;;;;5.95;2.10;;;18.90;38.70;;;;;;5053816;28;20465;-69
2021/03/30 00:33:21;;;;;;;4.22;1.65;;;19.00;38.70;;;;;;5053729;28;20078;-69
2021/03/30 00:35:47;;;;;;;3.42;1.58;;;19.00;38.70;;;;;;5053813;28;20028;-69
2021/03/30 00:38:12;;;;;;;4.15;1.63;;;18.90;38.70;;;;;;5069107;28;20460;-69
2021/03/30 00:40:38;;;;;;;4.60;1.50;;;19.00;38.70;;;;;;5053925;28;20032;-69
2021/03/30 00:43:05;;;;;;;4.85;2.00;;;18.90;38.70;;;;;;5053417;28;20033;-69
2021/03/30 00:45:30;;;;;;;7.15;1.65;;;19.00;38.70;;;;;;5053739;28;20056;-69
2021/03/30 00:47:56;;;;;;;5.25;2.03;;;19.00;38.70;;;;;;5053767;28;20503;-69
2021/03/30 00:50:26;;;;;;;3.10;1.42;;;18.90;38.70;;;;;;5054117;28;20115;-69
2021/03/30 00:52:52;;;;;;;3.55;1.80;;;18.90;38.70;;;;;;5053663;28;20384;-69
2021/03/30 00:55:17;;;;;;;3.42;1.58;;;18.90;38.80;;;;;;5053521;28;20028;-69
2021/03/30 00:57:44;;;;;;;4.15;1.60;;;18.90;38.70;;;;;;5053423;28;20108;-69
2021/03/30 01:00:12;;;;;;;5.22;1.70;;;18.90;38.70;;;;;;5053389;28;20469;-69
2021/03/30 01:02:39;;;;;;;4.50;2.00;;;18.90;38.70;;;;;;5053581;28;20025;-69
2021/03/30 01:05:06;;;;;;;3.70;1.65;;;18.90;38.70;;;;;;5057501;28;20246;-69
2021/03/30 01:07:34;;;;;;;4.38;1.60;;;18.90;38.70;;;;;;5057564;28;20100;-69
2021/03/30 01:10:23;;;;;;;3.53;1.63;;;18.90;38.70;;;;;;5057633;28;20029;-69
2021/03/30 01:13:04;;;;;;;5.40;2.00;;;18.90;38.80;;;;;;5057458;28;20431;-69
2021/03/30 01:15:41;;;;;;;5.18;1.90;;;18.90;38.80;;;;;;5057166;28;20024;-69
2021/03/30 01:18:38;;;;;;;3.83;1.88;;;18.90;38.70;;;;;;5057114;28;20480;-69
2021/03/30 01:21:41;;;;;;;4.75;2.03;;;18.90;38.80;;;;;;5048653;28;20041;-69
2021/03/30 01:24:22;;;;;;;5.80;2.00;;;18.90;38.80;;;;;;5056985;28;20033;-69
2021/03/30 01:26:50;;;;;;;5.10;1.73;;;18.80;38.80;;;;;;5057428;28;20473;-69
2021/03/30 01:29:28;;;;;;;4.45;1.90;;;18.90;38.80;;;;;;5057037;28;20145;-69
2021/03/30 01:32:00;;;;;;;3.92;1.63;;;18.90;38.80;;;;;;5057227;28;20032;-69
2021/03/30 01:34:28;;;;;;;4.18;1.60;;;18.90;38.80;;;;;;5057026;28;20554;-69
2021/03/30 01:36:58;;;;;;;5.47;1.90;;;18.80;38.80;;;;;;5057076;28;20029;-69
2021/03/30 01:39:25;;;;;;;5.07;1.90;;;18.80;38.80;;;;;;5057173;28;20049;-69
2021/03/30 01:41:52;;;;;;;5.05;1.90;;;18.90;38.80;;;;;;5057322;28;20029;-66
2021/03/30 01:44:19;;;;;;;4.38;2.05;;;18.80;38.80;;;;;;5055511;28;20037;-68
2021/03/30 01:46:45;;;;;;;3.72;1.83;;;18.80;38.80;;;;;;5056689;28;20017;-68
2021/03/30 01:49:13;;;;;;;4.70;1.92;;;18.80;38.80;;;;;;5056792;28;20027;-68
2021/03/30 01:51:41;;;;;;;4.70;2.13;;;18.80;38.80;;;;;;5056735;28;20043;-68
2021/03/30 01:54:08;;;;;;;5.78;2.10;;;18.80;38.80;;;;;;5056387;28;20424;-68
2021/03/30 01:56:35;;;;;;;3.47;1.58;;;18.80;38.80;;;;;;5056267;28;20028;-67
2021/03/30 01:59:02;;;;;;;5.07;1.90;;;18.80;38.80;;;;;;5056425;28;20052;-68
2021/03/30 02:01:28;;;;;;;4.55;1.98;;;18.80;38.80;;;;;;5056372;28;20436;-68
2021/03/30 02:03:56;;;;;;;4.18;1.80;;;18.80;38.80;;;;;;5056287;28;20481;-68
2021/03/30 02:06:22;;;;;;;4.75;2.00;;;18.80;38.80;;;;;;5056139;28;20086;-69
2021/03/30 02:08:49;;;;;;;5.47;2.17;;;18.80;38.80;;;;;;5056212;28;20070;-68
2021/03/30 02:11:25;;;;;;;4.63;1.95;;;18.80;38.80;;;;;;5056215;28;20021;-68
2021/03/30 02:13:58;;;;;;;4.07;1.90;;;18.80;38.80;;;;;;5056322;28;20021;-68
2021/03/30 02:16:33;;;;;;;3.65;1.60;;;18.80;38.80;;;;;;5056331;28;20025;-67
2021/03/30 02:19:13;;;;;;;3.33;1.58;;;18.80;38.80;;;;;;5056518;28;20035;-68
2021/03/30 02:21:45;;;;;;;5.68;1.92;;;18.80;38.80;;;;;;5059127;28;20049;-68
2021/03/30 02:24:12;;;;;;;4.38;1.88;;;18.80;38.80;;;;;;5061217;28;20032;-70
2021/03/30 02:26:41;;;;;;;5.93;2.05;;;18.80;38.80;;;;;;5056122;28;20049;-68
2021/03/30 02:29:12;;;;;;;6.93;2.17;;;18.80;38.80;;;;;;5056283;28;20033;-69
2021/03/30 02:31:39;;;;;;;4.70;2.45;;;18.80;38.80;;;;;;5056308;28;20049;-69
2021/03/30 02:34:06;;;;;;;4.57;2.00;;;18.80;38.80;;;;;;5057255;28;20025;-69
2021/03/30 02:36:33;;;;;;;3.53;1.65;;;18.80;38.80;;;;;;5058138;28;20021;-69
2021/03/30 02:39:06;;;;;;;6.03;2.00;;;18.80;38.80;;;;;;5056647;28;20056;-69
2021/03/30 02:41:32;;;;;;;4.75;1.77;;;18.80;38.80;;;;;;5057664;28;20082;-69
2021/03/30 02:44:00;;;;;;;5.20;2.10;;;18.70;38.80;;;;;;5056174;28;20108;-69
2021/03/30 02:46:26;;;;;;;4.18;1.85;;;18.70;38.80;;;;;;5065329;28;20107;-67
2021/03/30 02:48:53;;;;;;;4.07;1.58;;;18.80;38.80;;;;;;5055993;28;20458;-69
2021/03/30 02:51:23;;;;;;;5.85;2.38;;;18.80;38.80;;;;;;5055460;28;20110;-69
2021/03/30 02:53:49;;;;;;;4.55;1.80;;;18.70;38.80;;;;;;5055553;28;20072;-69
2021/03/30 02:56:15;;;;;;;3.67;1.90;;;18.70;38.80;;;;;;5055574;28;20021;-69
2021/03/30 02:58:42;;;;;;;4.85;2.10;;;18.70;38.80;;;;;;5054035;28;20032;-69
2021/03/30 03:01:09;;;;;;;6.28;2.05;;;18.70;38.80;;;;;;5055155;28;20486;-69
2021/03/30 03:03:36;;;;;;;3.85;1.98;;;18.70;38.80;;;;;;5055188;28;20499;-69
2021/03/30 03:06:02;;;;;;;5.72;2.22;;;18.70;38.90;;;;;;5054861;28;20060;-68
2021/03/30 03:08:29;;;;;;;6.03;2.10;;;18.70;38.80;;;;;;5055233;28;20025;-69
2021/03/30 03:10:55;;;;;;;4.60;2.05;;;18.70;38.80;;;;;;5055264;28;20090;-69
2021/03/30 03:13:24;;;;;;;10.80;3.47;;;18.70;38.80;;;;;;5054142;28;20021;-69
2021/03/30 03:15:50;;;;;;;3.67;1.80;;;18.70;38.80;;;;;;5055105;28;20028;-69
2021/03/30 03:18:17;;;;;;;4.20;1.98;;;18.70;38.80;;;;;;5054960;28;20024;-69
2021/03/30 03:20:49;;;;;;;4.50;1.90;;;18.70;38.80;;;;;;5054949;28;20128;-70
2021/03/30 03:23:16;;;;;;;6.57;2.05;;;18.70;38.80;;;;;;5054835;28;20078;-69
2021/03/30 03:25:44;;;;;;;6.57;2.28;;;18.70;38.80;;;;;;5054313;28;20481;-69
2021/03/30 03:28:10;;;;;;;4.55;1.98;;;18.70;38.80;;;;;;5054496;28;20389;-67
2021/03/30 03:30:39;;;;;;;4.47;1.70;;;18.70;38.80;;;;;;5054727;28;20032;-67
2021/03/30 03:33:10;;;;;;;4.05;1.65;;;18.70;38.80;;;;;;5054602;28;20035;-67
2021/03/30 03:35:35;;;;;;;6.32;2.35;;;18.70;38.80;;;;;;5054434;28;20036;-67
2021/03/30 03:38:02;;;;;;;5.25;2.10;;;18.70;38.80;;;;;;5054810;28;20025;-67
2021/03/30 03:40:28;;;;;;;6.70;2.13;;;18.60;38.80;;;;;;5054618;28;20040;-68
2021/03/30 03:42:55;;;;;;;6.90;2.15;;;18.60;38.80;;;;;;5054373;28;20036;-68
2021/03/30 03:45:20;;;;;;;6.47;2.03;;;18.60;38.80;;;;;;5054982;28;20037;-68
2021/03/30 03:47:46;;;;;;;5.55;2.22;;;18.60;38.80;;;;;;5054255;28;20029;-68
2021/03/30 03:50:12;;;;;;;3.90;1.90;;;18.60;38.80;;;;;;5054170;28;20086;-68
2021/03/30 03:52:42;;;;;;;5.05;2.00;;;18.70;38.80;;;;;;5054322;28;20025;-68
2021/03/30 03:55:09;;;;;;;6.93;2.20;;;18.60;38.80;;;;;;5054395;28;20016;-68
2021/03/30 03:58:01;;;;;;;7.25;2.22;;;18.60;38.80;;;;;;5054266;28;20132;-68
2021/03/30 04:00:27;;;;;;;5.05;1.98;;;18.60;38.80;;;;;;5054210;28;20021;-68
2021/03/30 04:03:01;;;;;;;5.30;1.83;;;18.60;38.80;;;;;;5054242;28;20556;-67
2021/03/30 04:05:35;;;;;;;4.30;1.87;;;18.60;38.80;;;;;;5054362;28;20045;-68
2021/03/30 04:08:07;;;;;;;4.03;1.83;;;18.60;38.80;;;;;;5053676;28;20541;-68
2021/03/30 04:10:34;;;;;;;5.57;2.03;;;18.60;38.80;;;;;;5053970;28;20039;-68
2021/03/30 04:13:01;;;;;;;4.25;1.77;;;18.60;38.80;;;;;;5053733;28;20507;-68
2021/03/30 04:15:27;;;;;;;4.72;1.83;;;18.60;38.80;;;;;;5053644;28;20523;-68
2021/03/30 04:17:53;;;;;;;4.82;2.08;;;18.70;38.80;;;;;;5053705;28;20029;-68
2021/03/30 04:20:20;;;;;;;4.38;1.95;;;18.60;38.80;;;;;;5053700;28;20056;-68
2021/03/30 04:22:54;;;;;;;6.25;2.40;;;18.70;38.80;;;;;;5053405;28;20032;-68
2021/03/30 04:25:19;;;;;;;6.45;1.90;;;18.60;38.80;;;;;;5053424;28;20033;-67
2021/03/30 04:27:45;;;;;;;5.50;2.15;;;18.60;38.80;;;;;;5058523;28;20047;-67
2021/03/30 04:30:11;;;;;;;4.70;1.98;;;18.60;38.80;;;;;;5059862;28;20051;-68
2021/03/30 04:32:37;;;;;;;4.70;2.03;;;18.70;38.70;;;;;;5056519;28;20448;-68
2021/03/30 04:35:03;;;;;;;3.53;1.75;;;18.70;38.80;;;;;;5055848;28;20151;-68
2021/03/30 04:37:28;;;;;;;6.18;2.22;;;18.70;38.80;;;;;;5053326;28;20065;-68
2021/03/30 04:39:54;;;;;;;4.35;1.95;;;18.70;38.70;;;;;;5054453;28;20033;-68
2021/03/30 04:42:19;;;;;;;5.43;2.30;;;18.70;38.70;;;;;;5053275;28;20032;-69
2021/03/30 04:44:45;;;;;;;5.13;2.10;;;18.70;38.70;;;;;;5053300;28;20039;-70
2021/03/30 04:47:11;;;;;;;4.65;1.92;;;18.70;38.70;;;;;;5053322;28;20025;-69
2021/03/30 04:49:36;;;;;;;4.03;1.83;;;18.70;38.70;;;;;;5053395;28;20033;-68
2021/03/30 04:52:02;;;;;;;5.72;2.38;;;18.70;38.70;;;;;;5053432;28;20028;-67
2021/03/30 04:54:27;;;;;;;6.05;2.15;;;18.70;38.70;;;;;;5053491;28;20036;-67
2021/03/30 04:56:53;;;;;;;5.53;2.08;;;18.70;38.70;;;;;;5053633;28;20033;-68
2021/03/30 04:59:19;;;;;;;7.07;2.25;;;18.70;38.70;;;;;;5053065;28;20029;-68
2021/03/30 05:01:44;;;;;;;5.10;2.22;;;18.70;38.70;;;;;;5052995;28;20032;-68
2021/03/30 05:04:10;;;;;;;4.88;1.90;;;18.70;38.70;;;;;;5053375;28;20037;-67
2021/03/30 05:06:35;;;;;;;3.95;1.60;;;18.70;38.70;;;;;;5053442;28;20403;-68
2021/03/30 05:09:02;;;;;;;6.75;2.60;;;18.70;38.70;;;;;;5053262;28;20037;-69
2021/03/30 05:11:27;;;;;;;6.50;2.28;;;18.70;38.70;;;;;;5053150;28;20024;-68
2021/03/30 05:13:53;;;;;;;6.40;2.10;;;18.70;38.70;;;;;;5053349;28;20025;-68
2021/03/30 05:16:18;;;;;;;6.40;2.30;;;18.70;38.70;;;;;;5053184;28;20025;-68
2021/03/30 05:18:44;;;;;;;5.00;1.90;;;18.70;38.70;;;;;;5052530;28;20032;-67
2021/03/30 05:21:10;;;;;;;5.78;1.83;;;18.70;38.70;;;;;;5053271;28;20564;-67
2021/03/30 05:23:36;;;;;;;6.18;1.88;;;18.70;38.70;;;;;;5052949;28;20083;-67
2021/03/30 05:26:01;;;;;;;5.90;2.15;;;18.70;38.70;;;;;;5052818;28;20067;-68
2021/03/30 05:28:27;;;;;;;5.20;2.20;;;18.70;38.70;;;;;;5053204;28;20053;-68
2021/03/30 05:30:52;;;;;;;4.43;2.05;;;18.70;38.70;;;;;;5052707;28;20370;-68
2021/03/30 05:33:19;;;;;;;7.32;2.05;;;18.70;38.70;;;;;;5052910;28;20082;-68
2021/03/30 05:35:44;;;;;;;5.35;2.08;;;18.70;38.70;;;;;;5052511;28;20048;-68
2021/03/30 05:38:11;;;;;;;5.60;2.03;;;18.70;38.70;;;;;;5051843;28;20465;-68
2021/03/30 05:40:36;;;;;;;7.38;2.22;;;18.70;38.70;;;;;;5052768;28;20111;-68
2021/03/30 05:43:02;;;;;;;5.05;2.20;;;18.60;38.70;;;;;;5055796;28;20487;-68
2021/03/30 05:45:28;;;;;;;5.43;2.03;;;18.70;38.70;;;;;;5051067;28;20816;-68
2021/03/30 05:47:55;;;;;;;4.85;1.95;;;18.70;38.60;;;;;;5060667;28;20484;-68
2021/03/30 05:50:22;;;;;;;9.45;2.30;;;18.70;38.70;;;;;;5065245;28;20028;-68
2021/03/30 05:52:53;;;;;;;7.28;2.17;;;18.70;38.70;;;;;;5075095;28;20380;-68
2021/03/30 05:55:25;;;;;;;5.90;2.10;;;18.70;38.60;;;;;;5062685;28;20495;-70
2021/03/30 05:57:53;;;;;;;6.65;2.05;;;18.70;38.60;;;;;;5063597;28;20020;-70
2021/03/30 06:00:25;;;;;;;4.65;2.10;;;18.80;38.60;;;;;;5077380;28;20107;-70
2021/03/30 06:02:56;;;;;;;5.18;1.95;;;18.70;38.60;;;;;;5080067;28;20059;-69
2021/03/30 06:05:22;;;;;;;4.30;1.70;;;18.70;38.70;;;;;;5075868;28;20028;-69
2021/03/30 06:07:48;;;;;;;4.63;2.00;;;18.70;38.70;;;;;;5059669;28;20558;-69
2021/03/30 06:10:16;;;;;;;8.63;2.05;;;18.70;38.60;;;;;;5055565;28;20040;-69
2021/03/30 06:12:43;;;;;;;5.72;2.15;;;18.80;38.60;;;;;;5055241;28;20040;-68
2021/03/30 06:15:11;;;;;;;4.18;1.73;;;18.70;38.60;;;;;;5072319;28;20484;-69
2021/03/30 06:17:47;;;;;;;4.53;1.95;;;18.80;38.60;;;;;;5075369;28;20472;-69
2021/03/30 06:20:24;;;;;;;5.88;2.55;;;18.80;38.60;;;;;;5075172;28;20032;-68
2021/03/30 06:22:52;;;;;;;5.47;1.77;;;18.80;38.70;;;;;;5075580;28;20195;-69
2021/03/30 06:25:36;;;;;;;3.88;1.70;;;18.80;38.60;;;;;;5075369;28;20054;-68
2021/03/30 06:28:09;;;;;;;;;;;18.80;38.60;;;;;;5075583;28;20024;-68
2021/03/30 06:30:35;;;;;;;4.25;2.00;;;18.80;38.60;;;;;;5074789;28;19984;-69
2021/03/30 06:33:01;;;;;;;4.78;1.98;;;18.80;38.70;;;;;;5074839;28;20472;-69
2021/03/30 06:35:29;;;;;;;7.18;2.75;;;18.80;38.70;;;;;;5073290;28;20021;-70
2021/03/30 06:37:55;;;;;;;6.20;2.42;;;18.80;38.70;;;;;;5073613;28;20355;-70
2021/03/30 06:40:28;;;;;;;4.68;2.13;;;18.80;38.70;;;;;;5074750;28;20496;-70
2021/03/30 06:42:57;;;;;;;7.60;3.63;;;18.80;38.70;;;;;;5067303;28;20025;-74
2021/03/30 06:45:29;;;;;;;11.32;5.10;;;18.70;37.90;;;;;;5083953;28;20047;-68
2021/03/30 06:47:57;;;;;;;10.52;5.70;;;18.50;37.90;;;;;;5100074;28;20027;-69
2021/03/30 06:50:31;;;;;;;12.38;5.38;;;18.20;38.20;;;;;;5096565;28;20091;-70
2021/03/30 06:53:12;;;;;;;6.90;3.00;;;18.40;38.40;;;;;;5094937;28;20032;-67
2021/03/30 06:55:46;;;;;;;7.00;3.08;;;18.50;38.90;;;;;;5086297;28;20028;-68
2021/03/30 06:58:13;;;;;;;7.85;2.85;;;18.60;38.80;;;;;;5074487;28;20031;-68
2021/03/30 07:00:40;;;;;;;8.50;2.47;;;18.60;38.80;;;;;;5071731;28;20029;-66
2021/03/30 07:03:08;;;;;;;6.30;2.35;;;18.70;38.70;;;;;;5073778;28;20040;-66
2021/03/30 07:05:37;;;;;;;5.70;2.65;;;18.80;38.70;;;;;;5070738;28;20039;-68
2021/03/30 07:08:19;;;;;;;7.07;2.60;;;18.80;38.60;;;;;;5073437;28;20028;-70
2021/03/30 07:10:52;;;;;;;4.75;2.10;;;18.80;38.60;;;;;;5073997;28;20113;-68
2021/03/30 07:13:23;;;;;;;5.35;2.30;;;18.80;38.60;;;;;;5073931;28;20469;-67
2021/03/30 07:15:54;;;;;;;6.85;2.47;;;18.90;38.50;;;;;;5073791;28;20025;-67
2021/03/30 07:18:42;;;;;;;5.25;2.10;;;18.90;38.50;;;;;;5073664;28;20029;-67
2021/03/30 07:21:21;;;;;;;6.93;2.78;;;18.90;38.50;;;;;;5073757;28;20048;-68
2021/03/30 07:23:59;;;;;;;7.30;2.70;;;18.90;38.40;;;;;;5072117;28;20032;-66
2021/03/30 07:26:46;;;;;;;5.97;2.38;;;19.00;38.40;;;;;;5072585;28;20033;-66
2021/03/30 07:29:16;;;;;;;6.82;2.47;;;19.00;38.40;;;;;;5073657;28;20108;-66
2021/03/30 07:32:07;;;;;;;6.22;2.90;;;19.00;38.40;;;;;;5072945;28;20067;-66
2021/03/30 07:34:56;;;;;;;6.03;2.40;;;19.00;38.40;;;;;;5073285;28;20027;-71
2021/03/30 07:37:44;;;;;;;6.07;2.53;;;19.10;38.30;;;;;;5073429;28;20025;-66
2021/03/30 07:40:13;;;;;;;8.07;2.45;;;19.10;38.30;;;;;;5073234;28;20028;-66
2021/03/30 07:42:42;;;;;;;6.95;2.90;;;19.10;38.30;;;;;;5071591;28;20541;-67
2021/03/30 07:45:11;;;;;;;5.15;2.20;;;19.10;38.30;;;;;;5052957;28;20044;-66
2021/03/30 07:47:37;;;;;;;6.82;2.08;;;19.10;38.30;;;;;;5053104;28;20373;-66
2021/03/30 07:50:11;;;;;;;5.78;2.63;;;19.10;38.30;;;;;;5053058;28;20021;-67
2021/03/30 07:52:45;;;;;;;7.70;2.97;;;19.10;38.30;;;;;;5053303;28;20032;-66
2021/03/30 07:55:19;;;;;;;7.97;2.58;;;19.20;38.20;;;;;;5051197;28;20126;-67
2021/03/30 07:58:05;;;;;;;7.40;2.70;;;19.20;38.20;;;;;;5051622;28;20108;-68
2021/03/30 08:00:31;;;;;;;7.03;2.78;;;19.20;38.30;;;;;;5070525;28;20119;-68
2021/03/30 08:03:06;;;;;;;7.85;2.55;;;19.20;38.20;;;;;;5073041;28;20109;-66
2021/03/30 08:05:32;;;;;;;5.05;2.25;;;19.20;38.20;;;;;;5072240;28;20028;-66
2021/03/30 08:07:58;;;;;;;9.20;2.85;;;19.20;38.20;;;;;;5073301;28;20063;-66
2021/03/30 08:10:36;;;;;;;5.53;2.45;;;19.20;38.20;;;;;;5072825;28;20025;-66
2021/03/30 08:13:28;;;;;;;7.28;2.53;;;19.20;38.30;;;;;;5071090;28;20020;-67
2021/03/30 08:16:01;;;;;;;6.85;2.75;;;19.20;38.20;;;;;;5072108;28;20074;-66
2021/03/30 08:18:31;;;;;;;5.15;2.10;;;19.30;38.20;;;;;;5072817;28;20021;-67
2021/03/30 08:20:58;;;;;;;5.78;2.30;;;19.20;38.20;;;;;;5072484;28;20044;-67
2021/03/30 08:23:25;;;;;;;5.05;2.33;;;19.30;38.20;;;;;;5072551;28;20074;-64
2021/03/30 08:25:54;;;;;;;9.63;2.45;;;19.30;38.20;;;;;;5072262;28;20047;-67
2021/03/30 08:28:48;;;;;;;6.82;2.20;;;19.30;38.20;;;;;;5071922;28;20028;-63
2021/03/30 08:31:15;;;;;;;5.78;2.40;;;19.30;38.20;;;;;;5071763;28;20035;-63
2021/03/30 08:33:41;;;;;;;6.22;2.45;;;19.30;38.30;;;;;;5071962;28;20052;-65
2021/03/30 08:36:24;;;;;;;7.50;2.28;;;19.30;38.30;;;;;;5072094;28;20032;-67
2021/03/30 08:38:52;;;;;;;4.32;1.83;;;19.30;38.30;;;;;;5072297;28;20103;-66
2021/03/30 08:41:42;;;;;;;5.72;2.17;;;19.30;38.30;;;;;;5072678;28;20025;-66
2021/03/30 08:44:38;;;;;;;6.85;2.53;;;19.30;38.30;;;;;;5058611;28;20079;-65
2021/03/30 08:47:04;;;;;;;7.18;2.33;;;19.30;38.30;;;;;;5053129;28;20025;-65
2021/03/30 08:49:43;;;;;;;5.13;2.30;;;19.30;38.30;;;;;;5054926;28;20033;-64
2021/03/30 08:52:10;;;;;;;6.72;2.20;;;19.30;38.30;;;;;;5060979;28;20013;-65
2021/03/30 08:54:52;;;;;;;7.03;2.25;;;19.30;38.30;;;;;;5056616;28;20029;-66
2021/03/30 08:57:37;;;;;;;5.47;2.10;;;19.40;38.30;;;;;;5053209;28;20100;-64
2021/03/30 09:00:23;;;;;;;5.32;2.15;;;19.40;38.30;;;;;;5069718;28;20392;-65
2021/03/30 09:02:59;;;;;;;6.15;2.40;;;19.40;38.30;;;;;;5073019;28;20078;-64
2021/03/30 09:05:25;;;;;;;7.00;2.70;;;19.40;38.30;;;;;;5073037;28;20036;-65
2021/03/30 09:07:50;;;;;;;4.78;2.17;;;19.40;38.30;;;;;;5073835;28;20104;-65
2021/03/30 09:10:16;;;;;;;7.13;2.70;;;19.40;38.30;;;;;;5073515;28;20112;-67
2021/03/30 09:12:46;;;;;;;6.13;2.22;;;19.40;38.30;;;;;;5072716;28;20063;-67
2021/03/30 09:15:14;;;;;;;5.38;1.95;;;19.50;38.30;;;;;;5071583;28;20025;-66
2021/03/30 09:18:00;;;;;;;5.18;2.28;;;19.50;38.20;;;;;;5074070;28;20033;-68
2021/03/30 09:20:27;;;;;;;4.72;2.00;;;19.50;38.20;;;;;;5071438;28;20036;-67
2021/03/30 09:22:56;;;;;;;5.53;2.50;;;19.50;38.20;;;;;;5072028;28;20372;-66
2021/03/30 09:25:32;;;;;;;4.90;2.35;;;19.50;38.20;;;;;;5075186;28;20025;-66
2021/03/30 09:27:58;;;;;;;6.38;2.40;;;19.60;38.10;;;;;;5076001;28;20017;-65
2021/03/30 09:30:25;;;;;;;7.28;2.25;;;19.70;38.10;;;;;;5074168;28;20055;-65
2021/03/30 09:32:53;;;;;;;5.57;2.28;;;19.80;38.10;;;;;;5075565;28;20056;-65
2021/03/30 09:35:27;;;;;;;5.80;2.38;;;19.80;38.00;;;;;;5076196;28;20039;-64
2021/03/30 09:38:03;;;;;;;6.60;2.40;;;19.90;38.00;;;;;;5074594;28;20035;-68
2021/03/30 09:40:31;;;;;;;6.78;2.60;;;20.00;37.90;;;;;;5074883;28;20414;-66
2021/03/30 09:42:57;;;;;;;5.32;1.90;;;20.00;37.80;;;;;;5070934;28;20421;-66
2021/03/30 09:45:31;;;;;;;4.47;2.10;;;20.10;37.70;;;;;;5092286;28;20039;-65
2021/03/30 09:47:59;;;;;;;5.57;2.13;;;20.20;37.60;;;;;;5095287;28;20046;-65
2021/03/30 09:50:26;;;;;;;5.35;2.25;;;20.30;37.50;;;;;;5095236;28;20029;-65
2021/03/30 09:52:52;;;;;;;5.78;2.47;;;20.20;37.50;;;;;;5095117;28;20487;-65
2021/03/30 09:55:36;;;;;;;5.47;2.42;;;20.30;37.50;;;;;;5094994;28;20020;-65
2021/03/30 09:58:09;;;;;;;5.72;2.35;;;20.40;37.40;;;;;;5094982;28;20107;-65
2021/03/30 10:00:38;;;;;;;4.38;1.67;;;20.50;37.40;;;;;;5074542;28;20037;-65
2021/03/30 10:03:05;;;;;;;4.53;2.03;;;20.50;37.30;;;;;;5074730;28;20032;-67
2021/03/30 10:05:33;;;;;;;6.88;2.17;;;20.50;37.30;;;;;;5074374;28;20073;-67
2021/03/30 10:07:59;;;;;;;4.78;2.25;;;20.60;37.30;;;;;;5074577;28;20029;-66
2021/03/30 10:10:24;;;;;;;5.03;2.22;;;20.60;37.30;;;;;;5074519;28;20081;-66
2021/03/30 10:12:57;;;;;;;7.18;2.40;;;20.60;37.20;;;;;;5074634;28;20036;-66
2021/03/30 10:15:36;;;;;;;5.22;2.17;;;20.70;37.20;;;;;;5074028;28;20081;-69
2021/03/30 10:18:04;;;;;;;5.35;1.83;;;20.80;37.00;;;;;;5074638;28;20039;-67
2021/03/30 10:20:30;;;;;;;6.53;2.50;;;20.70;37.10;;;;;;5074283;28;20032;-67
2021/03/30 10:22:55;;;;;;;5.30;2.33;;;20.70;37.30;;;;;;5074698;28;20020;-67
2021/03/30 10:25:28;;;;;;;4.60;2.00;;;20.70;37.20;;;;;;5074482;28;20037;-67
2021/03/30 10:27:57;;;;;;;4.25;2.30;;;20.80;37.20;;;;;;5074744;28;20017;-67
2021/03/30 10:30:32;;;;;;;6.18;2.72;;;20.90;37.10;;;;;;5078985;28;20094;-67
2021/03/30 10:33:02;;;;;;;6.00;2.22;;;20.80;37.10;;;;;;5075253;28;20033;-66
2021/03/30 10:35:28;;;;;;;6.50;2.25;;;20.90;37.00;;;;;;5073125;28;20408;-67
2021/03/30 10:37:54;;;;;;;5.93;2.55;;;20.90;37.00;;;;;;5074660;28;20107;-67
2021/03/30 10:40:19;;;;;;;4.63;1.95;;;21.00;37.00;;;;;;5074027;28;20124;-67
2021/03/30 10:42:46;;;;;;;4.90;2.20;;;21.00;36.90;;;;;;5071908;28;20017;-66
2021/03/30 10:45:13;;;;;;;6.10;2.30;;;21.00;36.90;;;;;;5054307;28;20045;-68
2021/03/30 10:47:41;;;;;;;4.00;2.08;;;21.10;36.90;;;;;;5055733;28;20017;-67
2021/03/30 10:50:12;;;;;;;4.93;1.98;;;21.10;36.80;;;;;;5073992;28;20430;-66
2021/03/30 10:52:39;;;;;;;5.78;2.72;;;21.20;36.80;;;;;;5072969;28;20483;-69
2021/03/30 10:55:15;;;;;;;5.78;2.10;;;21.20;36.80;;;;;;5073863;28;20418;-65
2021/03/30 10:57:46;;;;;;;6.25;2.45;;;21.20;36.80;;;;;;5073983;28;20024;-63
2021/03/30 11:00:13;;;;;;;6.45;2.00;;;21.20;36.80;;;;;;5073557;28;20028;-66
2021/03/30 11:02:42;;;;;;;5.40;2.17;;;21.30;36.70;;;;;;5074406;28;20028;-70
2021/03/30 11:05:09;;;;;;;4.50;2.10;;;21.30;36.70;;;;;;5073972;28;20037;-68
2021/03/30 11:07:35;;;;;;;8.70;2.67;;;21.30;36.60;;;;;;5056110;28;20078;-68
2021/03/30 11:10:04;;;;;;;4.60;2.15;;;21.40;36.60;;;;;;5074436;28;20028;-67
2021/03/30 11:12:30;;;;;;;5.18;2.17;;;21.40;36.60;;;;;;5072563;28;20036;-67
2021/03/30 11:14:56;;;;;;;4.75;2.15;;;21.40;36.60;;;;;;5073650;28;20028;-64
2021/03/30 11:17:22;;;;;;;3.90;1.73;;;21.50;36.60;;;;;;5073780;28;20149;-65
2021/03/30 11:19:48;;;;;;;4.43;1.70;;;21.40;36.60;;;;;;5072976;28;20382;-67
2021/03/30 11:22:14;;;;;;;5.35;2.10;;;21.40;36.70;;;;;;5073841;28;20036;-68
2021/03/30 11:24:41;;;;;;;5.50;2.15;;;21.40;36.70;;;;;;5074084;28;20040;-67
2021/03/30 11:27:07;;;;;;;4.63;2.20;;;21.50;36.70;;;;;;5073382;28;20032;-67
2021/03/30 11:39:55;;;;;;;5.60;1.90;;;21.60;36.60;;;;;;5087413;28;20025;-66
2021/03/30 11:42:21;;;;;;;5.40;1.80;;;21.70;36.60;;;;;;5079719;28;20024;-67
2021/03/30 11:44:46;;;;;;;4.65;1.88;;;21.70;36.50;;;;;;5073345;28;20181;-67
2021/03/30 11:47:12;;;;;;;4.18;1.88;;;21.80;36.60;;;;;;5073751;28;20025;-67
2021/03/30 11:49:38;;;;;;;6.70;1.65;;;21.80;36.50;;;;;;5072958;28;20032;-66
2021/03/30 11:52:04;;;;;;;5.07;2.03;;;21.90;36.50;;;;;;5077058;28;20024;-68
2021/03/30 11:54:30;;;;;;;5.78;1.83;;;21.90;36.50;;;;;;5072009;28;20195;-67
2021/03/30 11:56:56;;;;;;;3.40;1.63;;;22.00;36.40;;;;;;5072935;28;20043;-66
2021/03/30 11:59:22;;;;;;;4.82;2.67;;;22.00;36.30;;;;;;5072986;28;20062;-66
2021/03/30 12:01:48;;;;;;;7.32;2.35;;;22.00;36.50;;;;;;5073127;28;20082;-67
2021/03/30 12:04:14;;;;;;;5.32;2.10;;;22.10;36.40;;;;;;5073136;28;20552;-71
2021/03/30 12:06:39;;;;;;;5.05;2.45;;;22.10;36.30;;;;;;5073273;28;20082;-68
2021/03/30 12:09:05;;;;;;;5.65;2.30;;;22.10;36.30;;;;;;5073026;28;20024;-68
2021/03/30 12:11:32;;;;;;;6.00;2.88;;;22.20;36.30;;;;;;5072898;28;20059;-68
2021/03/30 12:13:58;;;;;;;4.38;2.35;;;22.30;36.20;;;;;;5072869;28;20112;-68
2021/03/30 12:16:24;;;;;;;4.38;1.60;;;22.30;36.20;;;;;;5071766;28;20528;-69
2021/03/30 12:18:50;;;;;;;5.85;2.28;;;22.40;36.20;;;;;;5073113;28;20103;-66
2021/03/30 12:21:17;;;;;;;5.38;2.20;;;22.40;36.10;;;;;;5072423;28;20136;-68
2021/03/30 12:23:42;;;;;;;4.95;2.20;;;22.50;36.00;;;;;;5069488;28;20040;-68
2021/03/30 12:26:08;;;;;;;4.85;2.30;;;22.50;36.10;;;;;;5070697;28;20048;-68
2021/03/30 12:28:34;;;;;;;6.53;2.15;;;22.50;36.00;;;;;;5074919;28;20111;-67
2021/03/30 12:31:00;;;;;;;3.53;1.67;;;22.60;36.00;;;;;;5091409;28;20028;-67
2021/03/30 12:33:25;;;;;;;5.60;2.83;;;22.60;36.00;;;;;;5091742;28;20452;-67
2021/03/30 12:35:51;;;;;;;7.03;2.83;;;22.70;36.00;;;;;;5092295;28;20079;-68
2021/03/30 12:38:17;;;;;;;6.30;2.25;;;22.70;35.90;;;;;;5087887;28;20044;-68
2021/03/30 12:40:42;;;;;;;4.85;2.28;;;22.80;35.90;;;;;;5052605;28;20383;-68
2021/03/30 12:43:08;;;;;;;5.80;2.42;;;22.80;35.80;;;;;;5052284;28;20058;-69
2021/03/30 12:45:35;;;;;;;5.95;2.60;;;22.80;35.80;;;;;;5051878;28;20098;-68
2021/03/30 12:48:02;;;;;;;4.18;1.98;;;22.90;35.70;;;;;;5052096;28;20037;-68
2021/03/30 12:50:28;;;;;;;4.65;2.33;;;22.90;35.80;;;;;;5052211;28;20380;-68
2021/03/30 12:52:54;;;;;;;6.00;2.92;;;22.90;35.70;;;;;;5052117;28;20056;-68
2021/03/30 12:55:20;;;;;;;5.72;2.47;;;23.00;35.70;;;;;;5052017;28;20056;-68
2021/03/30 12:57:45;;;;;;;5.95;2.13;;;23.00;35.70;;;;;;5065238;28;20101;-68
2021/03/30 13:00:12;;;;;;;5.85;2.63;;;23.00;35.70;;;;;;5071787;28;20040;-68
2021/03/30 13:02:38;;;;;;;7.38;2.28;;;23.00;35.70;;;;;;5072197;28;20511;-69
2021/03/30 13:05:04;;;;;;;5.68;2.03;;;23.00;35.70;;;;;;5072144;28;20068;-68
2021/03/30 13:07:30;;;;;;;4.90;2.08;;;23.00;35.80;;;;;;5072153;28;20032;-69
2021/03/30 13:09:56;;;;;;;4.35;2.25;;;23.00;35.80;;;;;;5072000;28;20032;-68